sensor_id;sensor_type;location;lat;lon;timestamp;noise_LAeq;noise_LA_min;noise_LA_max;noise_LA01;noise_LA95
74260;Laerm;62630;55.874;37.516;2023-02-28T00:00:27;50.89;46.19;64.22;;
74260;Laerm;62630;55.874;37.516;2023-02-28T00:02:53;49.28;44.08;55.77;;
74260;Laerm;62630;55.874;37.516;2023-02-28T00:05:20;49.81;44.38;59.78;;
74260;Laerm;62630;55.874;37.516;2023-02-28T00:07:47;50.86;45.00;63.99;;
74260;Laerm;62630;55.874;37.516;2023-02-28T00:10:15;49.23;44.30;55.00;;
74260;Laerm;62630;55.874;37.516;2023-02-28T00:12:41;51.69;45.55;59.94;;
74260;Laerm;62630;55.874;37.516;2023-02-28T00:15:09;51.56;44.26;64.63;;
74260;Laerm;62630;55.874;37.516;2023-02-28T00:17:34;49.42;45.28;56.05;;
74260;Laerm;62630;55.874;37.516;2023-02-28T00:20:00;50.03;45.37;59.36;;
74260;Laerm;62630;55.874;37.516;2023-02-28T00:22:30;50.42;45.26;57.60;;
74260;Laerm;62630;55.874;37.516;2023-02-28T00:24:56;53.32;45.98;67.17;;
74260;Laerm;62630;55.874;37.516;2023-02-28T00:27:21;51.78;46.20;61.17;;
74260;Laerm;62630;55.874;37.516;2023-02-28T00:29:47;49.76;45.19;54.00;;
74260;Laerm;62630;55.874;37.516;2023-02-28T00:32:13;52.57;46.14;63.97;;
74260;Laerm;62630;55.874;37.516;2023-02-28T00:34:38;50.45;46.16;59.30;;
74260;Laerm;62630;55.874;37.516;2023-02-28T00:37:06;53.35;45.50;68.18;;
74260;Laerm;62630;55.874;37.516;2023-02-28T00:39:36;51.12;45.93;59.04;;
74260;Laerm;62630;55.874;37.516;2023-02-28T00:42:02;53.31;45.15;70.56;;
74260;Laerm;62630;55.874;37.516;2023-02-28T00:44:28;49.27;45.80;54.75;;
74260;Laerm;62630;55.874;37.516;2023-02-28T00:46:54;53.31;46.20;68.64;;
74260;Laerm;62630;55.874;37.516;2023-02-28T00:49:20;54.44;46.24;66.74;;
74260;Laerm;62630;55.874;37.516;2023-02-28T00:51:46;52.94;46.43;64.75;;
74260;Laerm;62630;55.874;37.516;2023-02-28T00:54:12;64.37;46.07;82.73;;
74260;Laerm;62630;55.874;37.516;2023-02-28T00:56:38;52.47;45.73;62.33;;
74260;Laerm;62630;55.874;37.516;2023-02-28T00:59:03;54.03;44.77;72.18;;
74260;Laerm;62630;55.874;37.516;2023-02-28T01:01:29;50.88;46.18;58.95;;
74260;Laerm;62630;55.874;37.516;2023-02-28T01:03:54;61.06;47.39;76.30;;
74260;Laerm;62630;55.874;37.516;2023-02-28T01:06:20;53.15;46.92;65.85;;
74260;Laerm;62630;55.874;37.516;2023-02-28T01:08:45;54.72;45.69;68.88;;
74260;Laerm;62630;55.874;37.516;2023-02-28T01:11:13;49.65;45.19;55.48;;
74260;Laerm;62630;55.874;37.516;2023-02-28T01:13:40;53.93;45.47;68.01;;
74260;Laerm;62630;55.874;37.516;2023-02-28T01:16:06;52.92;46.30;72.28;;
74260;Laerm;62630;55.874;37.516;2023-02-28T01:18:32;52.99;45.55;63.75;;
74260;Laerm;62630;55.874;37.516;2023-02-28T01:20:58;53.57;49.01;66.72;;
74260;Laerm;62630;55.874;37.516;2023-02-28T01:23:23;53.20;46.61;64.09;;
74260;Laerm;62630;55.874;37.516;2023-02-28T01:25:52;50.26;45.74;55.09;;
74260;Laerm;62630;55.874;37.516;2023-02-28T01:28:18;52.23;46.47;63.99;;
74260;Laerm;62630;55.874;37.516;2023-02-28T01:30:48;56.13;47.23;70.17;;
74260;Laerm;62630;55.874;37.516;2023-02-28T01:33:13;57.24;47.34;68.04;;
74260;Laerm;62630;55.874;37.516;2023-02-28T01:35:39;54.60;47.17;69.64;;
74260;Laerm;62630;55.874;37.516;2023-02-28T01:38:04;53.77;46.18;71.44;;
74260;Laerm;62630;55.874;37.516;2023-02-28T01:40:30;49.65;45.63;55.25;;
74260;Laerm;62630;55.874;37.516;2023-02-28T01:42:55;55.26;46.75;76.03;;
74260;Laerm;62630;55.874;37.516;2023-02-28T01:45:22;50.50;46.59;57.38;;
74260;Laerm;62630;55.874;37.516;2023-02-28T01:47:52;53.57;47.92;68.73;;
74260;Laerm;62630;55.874;37.516;2023-02-28T01:50:23;54.84;47.40;72.22;;
74260;Laerm;62630;55.874;37.516;2023-02-28T01:52:50;55.40;46.99;68.57;;
74260;Laerm;62630;55.874;37.516;2023-02-28T01:55:20;54.68;47.12;66.50;;
74260;Laerm;62630;55.874;37.516;2023-02-28T01:57:51;61.84;47.76;77.50;;
74260;Laerm;62630;55.874;37.516;2023-02-28T02:00:20;49.85;46.23;53.22;;
74260;Laerm;62630;55.874;37.516;2023-02-28T02:02:50;63.96;47.32;79.55;;
74260;Laerm;62630;55.874;37.516;2023-02-28T02:05:20;54.37;46.82;65.88;;
74260;Laerm;62630;55.874;37.516;2023-02-28T02:07:49;56.78;46.78;67.12;;
74260;Laerm;62630;55.874;37.516;2023-02-28T02:13:02;59.02;46.46;72.09;;
74260;Laerm;62630;55.874;37.516;2023-02-28T02:21:22;56.71;48.38;80.42;;
74260;Laerm;62630;55.874;37.516;2023-02-28T02:26:43;56.98;47.26;72.35;;
74260;Laerm;62630;55.874;37.516;2023-02-28T02:32:30;69.58;47.83;87.86;;
74260;Laerm;62630;55.874;37.516;2023-02-28T02:40:17;60.04;49.95;74.57;;
74260;Laerm;62630;55.874;37.516;2023-02-28T02:42:59;58.78;48.92;74.38;;
74260;Laerm;62630;55.874;37.516;2023-02-28T02:45:45;61.26;48.76;77.73;;
74260;Laerm;62630;55.874;37.516;2023-02-28T02:48:16;55.99;49.82;64.03;;
74260;Laerm;62630;55.874;37.516;2023-02-28T02:50:46;57.18;51.14;74.14;;
74260;Laerm;62630;55.874;37.516;2023-02-28T02:53:17;58.54;50.23;70.71;;
74260;Laerm;62630;55.874;37.516;2023-02-28T02:55:46;59.59;50.34;83.31;;
74260;Laerm;62630;55.874;37.516;2023-02-28T02:58:15;55.59;51.04;64.76;;
74260;Laerm;62630;55.874;37.516;2023-02-28T03:01:06;59.26;50.94;71.25;;
74260;Laerm;62630;55.874;37.516;2023-02-28T03:03:33;59.77;51.70;72.42;;
74260;Laerm;62630;55.874;37.516;2023-02-28T03:06:00;55.67;49.99;70.93;;
74260;Laerm;62630;55.874;37.516;2023-02-28T03:08:29;58.15;50.71;71.75;;
74260;Laerm;62630;55.874;37.516;2023-02-28T03:11:06;58.66;50.43;70.99;;
74260;Laerm;62630;55.874;37.516;2023-02-28T03:27:30;60.25;51.29;70.32;;
74260;Laerm;62630;55.874;37.516;2023-02-28T03:30:08;57.35;51.35;67.78;;
74260;Laerm;62630;55.874;37.516;2023-02-28T03:35:41;65.47;52.27;83.06;;
74260;Laerm;62630;55.874;37.516;2023-02-28T03:38:13;59.89;51.83;77.54;;
74260;Laerm;62630;55.874;37.516;2023-02-28T03:40:44;58.78;50.91;73.18;;
74260;Laerm;62630;55.874;37.516;2023-02-28T03:43:16;62.60;52.36;81.39;;
74260;Laerm;62630;55.874;37.516;2023-02-28T03:45:43;65.04;53.08;78.93;;
74260;Laerm;62630;55.874;37.516;2023-02-28T03:48:30;69.75;54.76;85.67;;
74260;Laerm;62630;55.874;37.516;2023-02-28T03:50:58;60.96;53.65;71.34;;
74260;Laerm;62630;55.874;37.516;2023-02-28T03:53:29;61.24;54.78;76.11;;
74260;Laerm;62630;55.874;37.516;2023-02-28T03:56:11;66.56;54.22;83.57;;
74260;Laerm;62630;55.874;37.516;2023-02-28T03:59:02;64.56;54.24;80.59;;
74260;Laerm;62630;55.874;37.516;2023-02-28T04:01:40;63.59;54.44;80.32;;
74260;Laerm;62630;55.874;37.516;2023-02-28T04:04:10;65.03;55.79;81.46;;
74260;Laerm;62630;55.874;37.516;2023-02-28T04:06:37;62.85;55.44;72.82;;
74260;Laerm;62630;55.874;37.516;2023-02-28T04:09:07;61.09;54.34;70.25;;
74260;Laerm;62630;55.874;37.516;2023-02-28T04:11:48;64.31;55.35;77.87;;
74260;Laerm;62630;55.874;37.516;2023-02-28T04:14:16;61.08;54.78;69.84;;
74260;Laerm;62630;55.874;37.516;2023-02-28T04:16:42;66.82;56.20;86.80;;
74260;Laerm;62630;55.874;37.516;2023-02-28T04:19:10;60.29;53.89;67.83;;
74260;Laerm;62630;55.874;37.516;2023-02-28T04:21:42;61.32;53.79;71.61;;
74260;Laerm;62630;55.874;37.516;2023-02-28T04:24:22;62.98;55.98;71.27;;
74260;Laerm;62630;55.874;37.516;2023-02-28T04:26:52;61.89;55.59;68.55;;
74260;Laerm;62630;55.874;37.516;2023-02-28T04:29:24;65.18;54.68;78.21;;
74260;Laerm;62630;55.874;37.516;2023-02-28T04:31:51;61.65;55.84;72.38;;
74260;Laerm;62630;55.874;37.516;2023-02-28T04:34:19;63.40;57.10;76.46;;
74260;Laerm;62630;55.874;37.516;2023-02-28T04:36:45;61.90;55.43;68.68;;
74260;Laerm;62630;55.874;37.516;2023-02-28T04:39:11;60.90;54.54;70.25;;
74260;Laerm;62630;55.874;37.516;2023-02-28T04:41:40;63.06;56.53;74.31;;
74260;Laerm;62630;55.874;37.516;2023-02-28T04:44:06;62.67;55.21;77.62;;
74260;Laerm;62630;55.874;37.516;2023-02-28T04:46:34;61.39;52.56;70.37;;
74260;Laerm;62630;55.874;37.516;2023-02-28T04:49:00;60.90;55.36;67.08;;
74260;Laerm;62630;55.874;37.516;2023-02-28T04:51:29;62.61;55.71;71.56;;
74260;Laerm;62630;55.874;37.516;2023-02-28T04:53:55;63.25;55.20;79.70;;
74260;Laerm;62630;55.874;37.516;2023-02-28T04:56:24;63.97;57.27;72.95;;
74260;Laerm;62630;55.874;37.516;2023-02-28T04:58:49;61.88;54.41;74.23;;
74260;Laerm;62630;55.874;37.516;2023-02-28T05:01:32;62.70;55.01;74.78;;
74260;Laerm;62630;55.874;37.516;2023-02-28T05:04:04;62.28;55.75;72.38;;
74260;Laerm;62630;55.874;37.516;2023-02-28T05:06:32;60.94;53.90;73.19;;
74260;Laerm;62630;55.874;37.516;2023-02-28T05:09:04;61.83;55.05;75.48;;
74260;Laerm;62630;55.874;37.516;2023-02-28T05:11:32;63.06;55.25;71.57;;
74260;Laerm;62630;55.874;37.516;2023-02-28T05:14:12;64.89;57.25;82.24;;
74260;Laerm;62630;55.874;37.516;2023-02-28T05:16:42;61.78;56.44;68.90;;
74260;Laerm;62630;55.874;37.516;2023-02-28T05:19:08;64.21;56.45;89.71;;
74260;Laerm;62630;55.874;37.516;2023-02-28T05:21:36;63.98;54.84;80.57;;
74260;Laerm;62630;55.874;37.516;2023-02-28T05:24:04;64.46;56.66;78.53;;
74260;Laerm;62630;55.874;37.516;2023-02-28T05:26:35;63.46;55.63;73.96;;
74260;Laerm;62630;55.874;37.516;2023-02-28T05:29:01;63.31;55.94;82.24;;
74260;Laerm;62630;55.874;37.516;2023-02-28T05:31:27;62.19;56.10;71.98;;
74260;Laerm;62630;55.874;37.516;2023-02-28T05:33:52;61.99;54.59;73.31;;
74260;Laerm;62630;55.874;37.516;2023-02-28T05:36:19;62.42;54.82;69.71;;
74260;Laerm;62630;55.874;37.516;2023-02-28T05:38:48;65.08;54.65;78.94;;
74260;Laerm;62630;55.874;37.516;2023-02-28T05:41:15;62.52;54.76;70.06;;
74260;Laerm;62630;55.874;37.516;2023-02-28T05:43:41;60.91;54.65;68.03;;
74260;Laerm;62630;55.874;37.516;2023-02-28T05:46:08;64.52;56.06;79.85;;
74260;Laerm;62630;55.874;37.516;2023-02-28T05:48:35;63.65;56.34;75.97;;
74260;Laerm;62630;55.874;37.516;2023-02-28T05:51:02;61.66;53.44;80.41;;
74260;Laerm;62630;55.874;37.516;2023-02-28T05:53:28;64.45;55.73;77.55;;
74260;Laerm;62630;55.874;37.516;2023-02-28T05:55:54;62.17;53.24;70.75;;
74260;Laerm;62630;55.874;37.516;2023-02-28T05:58:20;62.99;54.65;75.57;;
74260;Laerm;62630;55.874;37.516;2023-02-28T06:00:46;62.94;54.42;72.44;;
74260;Laerm;62630;55.874;37.516;2023-02-28T06:03:15;67.59;56.83;82.73;;
74260;Laerm;62630;55.874;37.516;2023-02-28T06:05:41;61.68;54.93;70.06;;
74260;Laerm;62630;55.874;37.516;2023-02-28T06:08:07;64.35;54.64;80.32;;
74260;Laerm;62630;55.874;37.516;2023-02-28T06:10:34;64.36;54.73;78.11;;
74260;Laerm;62630;55.874;37.516;2023-02-28T06:13:01;69.29;57.60;86.51;;
74260;Laerm;62630;55.874;37.516;2023-02-28T06:15:28;62.69;53.37;75.27;;
74260;Laerm;62630;55.874;37.516;2023-02-28T06:17:54;65.78;53.96;78.23;;
74260;Laerm;62630;55.874;37.516;2023-02-28T06:20:22;62.62;55.30;74.98;;
74260;Laerm;62630;55.874;37.516;2023-02-28T06:22:48;66.01;54.73;83.41;;
74260;Laerm;62630;55.874;37.516;2023-02-28T06:25:16;62.43;54.23;80.57;;
74260;Laerm;62630;55.874;37.516;2023-02-28T06:27:42;64.10;56.36;74.95;;
74260;Laerm;62630;55.874;37.516;2023-02-28T06:30:12;68.69;55.85;82.03;;
74260;Laerm;62630;55.874;37.516;2023-02-28T06:32:37;62.99;53.69;75.81;;
74260;Laerm;62630;55.874;37.516;2023-02-28T06:35:03;69.46;56.79;97.64;;
74260;Laerm;62630;55.874;37.516;2023-02-28T06:37:31;60.93;53.54;76.07;;
74260;Laerm;62630;55.874;37.516;2023-02-28T06:39:56;63.79;55.65;74.54;;
74260;Laerm;62630;55.874;37.516;2023-02-28T06:42:23;63.79;55.59;76.59;;
74260;Laerm;62630;55.874;37.516;2023-02-28T06:44:55;62.99;54.99;70.47;;
74260;Laerm;62630;55.874;37.516;2023-02-28T06:47:21;65.08;57.95;80.19;;
74260;Laerm;62630;55.874;37.516;2023-02-28T06:49:47;60.82;53.65;67.35;;
74260;Laerm;62630;55.874;37.516;2023-02-28T06:52:12;61.06;54.70;73.28;;
74260;Laerm;62630;55.874;37.516;2023-02-28T06:54:39;61.46;54.19;69.46;;
74260;Laerm;62630;55.874;37.516;2023-02-28T06:57:04;63.54;55.97;73.74;;
74260;Laerm;62630;55.874;37.516;2023-02-28T06:59:32;67.19;57.33;77.80;;
74260;Laerm;62630;55.874;37.516;2023-02-28T07:02:07;61.62;53.78;73.96;;
74260;Laerm;62630;55.874;37.516;2023-02-28T07:04:33;62.21;53.48;70.38;;
74260;Laerm;62630;55.874;37.516;2023-02-28T07:07:01;60.25;53.81;71.14;;
74260;Laerm;62630;55.874;37.516;2023-02-28T07:09:27;61.19;55.31;69.26;;
74260;Laerm;62630;55.874;37.516;2023-02-28T07:11:55;65.35;55.68;85.06;;
74260;Laerm;62630;55.874;37.516;2023-02-28T07:14:20;61.76;54.09;72.97;;
74260;Laerm;62630;55.874;37.516;2023-02-28T07:16:47;64.38;53.45;79.32;;
74260;Laerm;62630;55.874;37.516;2023-02-28T07:19:15;62.65;54.31;71.18;;
74260;Laerm;62630;55.874;37.516;2023-02-28T07:21:41;69.01;55.25;87.08;;
74260;Laerm;62630;55.874;37.516;2023-02-28T07:24:06;61.50;54.77;77.82;;
74260;Laerm;62630;55.874;37.516;2023-02-28T07:26:32;61.84;53.92;71.12;;
74260;Laerm;62630;55.874;37.516;2023-02-28T07:29:01;64.08;55.41;72.79;;
74260;Laerm;62630;55.874;37.516;2023-02-28T07:31:27;63.57;54.48;83.08;;
74260;Laerm;62630;55.874;37.516;2023-02-28T07:33:56;61.29;54.37;74.82;;
74260;Laerm;62630;55.874;37.516;2023-02-28T07:36:22;62.85;54.89;71.98;;
74260;Laerm;62630;55.874;37.516;2023-02-28T07:38:48;62.48;55.26;72.38;;
74260;Laerm;62630;55.874;37.516;2023-02-28T07:41:20;60.78;53.55;69.84;;
74260;Laerm;62630;55.874;37.516;2023-02-28T07:43:47;63.08;56.25;73.61;;
74260;Laerm;62630;55.874;37.516;2023-02-28T07:46:14;64.69;55.87;82.78;;
74260;Laerm;62630;55.874;37.516;2023-02-28T07:48:41;62.31;55.32;73.72;;
74260;Laerm;62630;55.874;37.516;2023-02-28T07:51:07;62.78;55.05;71.94;;
74260;Laerm;62630;55.874;37.516;2023-02-28T07:53:36;62.46;55.16;70.26;;
74260;Laerm;62630;55.874;37.516;2023-02-28T07:56:08;63.12;54.68;71.33;;
74260;Laerm;62630;55.874;37.516;2023-02-28T07:58:34;68.34;55.16;88.03;;
74260;Laerm;62630;55.874;37.516;2023-02-28T08:01:07;61.64;52.99;71.56;;
74260;Laerm;62630;55.874;37.516;2023-02-28T08:03:33;62.58;54.58;73.92;;
74260;Laerm;62630;55.874;37.516;2023-02-28T08:06:03;62.41;54.09;73.48;;
74260;Laerm;62630;55.874;37.516;2023-02-28T08:08:29;64.71;56.32;73.78;;
74260;Laerm;62630;55.874;37.516;2023-02-28T08:11:01;63.66;55.51;72.41;;
74260;Laerm;62630;55.874;37.516;2023-02-28T08:13:28;64.55;54.51;78.30;;
74260;Laerm;62630;55.874;37.516;2023-02-28T08:15:55;61.87;54.99;70.87;;
74260;Laerm;62630;55.874;37.516;2023-02-28T08:18:26;62.81;55.54;69.87;;
74260;Laerm;62630;55.874;37.516;2023-02-28T08:20:52;60.57;53.08;70.56;;
74260;Laerm;62630;55.874;37.516;2023-02-28T08:23:17;62.86;54.57;77.95;;
74260;Laerm;62630;55.874;37.516;2023-02-28T08:25:43;60.72;55.07;70.30;;
74260;Laerm;62630;55.874;37.516;2023-02-28T08:28:09;61.81;53.51;71.85;;
74260;Laerm;62630;55.874;37.516;2023-02-28T08:30:34;65.41;54.87;87.78;;
74260;Laerm;62630;55.874;37.516;2023-02-28T08:33:00;60.67;52.96;69.84;;
74260;Laerm;62630;55.874;37.516;2023-02-28T08:35:27;64.06;55.71;70.78;;
74260;Laerm;62630;55.874;37.516;2023-02-28T08:37:57;64.73;54.20;78.89;;
74260;Laerm;62630;55.874;37.516;2023-02-28T08:40:23;63.14;53.54;72.60;;
74260;Laerm;62630;55.874;37.516;2023-02-28T08:42:49;61.69;53.29;74.23;;
74260;Laerm;62630;55.874;37.516;2023-02-28T08:45:28;69.37;54.26;83.56;;
74260;Laerm;62630;55.874;37.516;2023-02-28T08:47:54;65.78;55.33;86.92;;
74260;Laerm;62630;55.874;37.516;2023-02-28T08:50:21;61.20;52.96;68.75;;
74260;Laerm;62630;55.874;37.516;2023-02-28T08:52:51;62.74;54.51;69.72;;
74260;Laerm;62630;55.874;37.516;2023-02-28T08:55:19;62.05;55.09;70.69;;
74260;Laerm;62630;55.874;37.516;2023-02-28T08:57:44;63.55;55.29;76.34;;
74260;Laerm;62630;55.874;37.516;2023-02-28T09:00:12;65.60;54.47;80.48;;
74260;Laerm;62630;55.874;37.516;2023-02-28T09:02:41;67.20;56.29;81.61;;
74260;Laerm;62630;55.874;37.516;2023-02-28T09:05:08;60.99;52.75;71.56;;
74260;Laerm;62630;55.874;37.516;2023-02-28T09:07:36;62.75;55.04;77.24;;
74260;Laerm;62630;55.874;37.516;2023-02-28T09:10:06;69.79;56.06;85.83;;
74260;Laerm;62630;55.874;37.516;2023-02-28T09:12:34;62.32;54.93;70.63;;
74260;Laerm;62630;55.874;37.516;2023-02-28T09:15:01;62.66;53.98;75.68;;
74260;Laerm;62630;55.874;37.516;2023-02-28T09:17:27;60.69;53.94;70.41;;
74260;Laerm;62630;55.874;37.516;2023-02-28T09:19:53;66.08;54.82;89.95;;
74260;Laerm;62630;55.874;37.516;2023-02-28T09:22:18;61.01;53.27;69.97;;
74260;Laerm;62630;55.874;37.516;2023-02-28T09:24:44;62.68;55.08;74.73;;
74260;Laerm;62630;55.874;37.516;2023-02-28T09:27:10;65.29;56.57;76.77;;
74260;Laerm;62630;55.874;37.516;2023-02-28T09:29:41;64.07;54.53;79.04;;
74260;Laerm;62630;55.874;37.516;2023-02-28T09:32:08;62.43;53.63;70.99;;
74260;Laerm;62630;55.874;37.516;2023-02-28T09:34:33;61.75;53.91;70.13;;
74260;Laerm;62630;55.874;37.516;2023-02-28T09:37:02;62.70;54.46;70.22;;
74260;Laerm;62630;55.874;37.516;2023-02-28T09:39:27;61.83;53.45;73.89;;
74260;Laerm;62630;55.874;37.516;2023-02-28T09:41:56;65.18;55.67;80.00;;
74260;Laerm;62630;55.874;37.516;2023-02-28T09:44:33;62.25;53.63;78.56;;
74260;Laerm;62630;55.874;37.516;2023-02-28T09:49:40;63.10;55.43;73.44;;
74260;Laerm;62630;55.874;37.516;2023-02-28T09:52:15;62.96;55.19;75.39;;
74260;Laerm;62630;55.874;37.516;2023-02-28T09:54:42;66.25;54.34;76.39;;
74260;Laerm;62630;55.874;37.516;2023-02-28T09:57:36;64.06;55.91;74.34;;
74260;Laerm;62630;55.874;37.516;2023-02-28T10:00:15;65.39;54.27;88.02;;
74260;Laerm;62630;55.874;37.516;2023-02-28T10:03:06;64.64;54.14;77.99;;
74260;Laerm;62630;55.874;37.516;2023-02-28T10:05:51;62.86;54.19;70.05;;
74260;Laerm;62630;55.874;37.516;2023-02-28T10:08:45;64.38;54.25;87.15;;
74260;Laerm;62630;55.874;37.516;2023-02-28T10:11:15;62.27;52.59;71.44;;
74260;Laerm;62630;55.874;37.516;2023-02-28T10:16:22;66.91;57.20;80.28;;
74260;Laerm;62630;55.874;37.516;2023-02-28T10:19:12;67.46;56.26;84.66;;
74260;Laerm;62630;55.874;37.516;2023-02-28T10:21:59;62.60;55.23;73.32;;
74260;Laerm;62630;55.874;37.516;2023-02-28T10:24:33;62.90;55.21;82.31;;
74260;Laerm;62630;55.874;37.516;2023-02-28T10:27:14;65.19;58.39;78.48;;
74260;Laerm;62630;55.874;37.516;2023-02-28T10:29:43;68.69;58.21;88.93;;
74260;Laerm;62630;55.874;37.516;2023-02-28T10:32:14;66.79;55.45;81.47;;
74260;Laerm;62630;55.874;37.516;2023-02-28T10:34:45;62.35;55.90;70.46;;
74260;Laerm;62630;55.874;37.516;2023-02-28T10:37:20;65.93;56.01;79.80;;
74260;Laerm;62630;55.874;37.516;2023-02-28T10:39:47;61.53;54.68;69.26;;
74260;Laerm;62630;55.874;37.516;2023-02-28T10:42:33;64.11;55.78;72.58;;
74260;Laerm;62630;55.874;37.516;2023-02-28T10:45:16;63.05;55.14;74.09;;
74260;Laerm;62630;55.874;37.516;2023-02-28T10:47:59;62.32;55.68;72.27;;
74260;Laerm;62630;55.874;37.516;2023-02-28T10:50:38;63.76;56.41;73.14;;
74260;Laerm;62630;55.874;37.516;2023-02-28T10:53:14;63.15;54.33;75.51;;
74260;Laerm;62630;55.874;37.516;2023-02-28T10:55:44;64.42;55.65;71.85;;
74260;Laerm;62630;55.874;37.516;2023-02-28T10:58:24;64.98;54.29;76.70;;
74260;Laerm;62630;55.874;37.516;2023-02-28T11:00:50;65.78;54.91;88.50;;
74260;Laerm;62630;55.874;37.516;2023-02-28T11:03:30;63.99;55.69;78.12;;
74260;Laerm;62630;55.874;37.516;2023-02-28T11:05:57;63.67;54.95;80.21;;
74260;Laerm;62630;55.874;37.516;2023-02-28T11:08:23;68.07;54.79;84.24;;
74260;Laerm;62630;55.874;37.516;2023-02-28T11:11:03;65.03;53.04;78.17;;
74260;Laerm;62630;55.874;37.516;2023-02-28T11:13:35;60.98;54.64;68.67;;
74260;Laerm;62630;55.874;37.516;2023-02-28T11:16:05;62.36;55.34;69.87;;
74260;Laerm;62630;55.874;37.516;2023-02-28T11:18:48;67.69;56.33;79.70;;
74260;Laerm;62630;55.874;37.516;2023-02-28T11:23:46;63.93;55.16;73.04;;
74260;Laerm;62630;55.874;37.516;2023-02-28T11:26:13;66.66;57.38;80.63;;
74260;Laerm;62630;55.874;37.516;2023-02-28T11:32:17;64.21;54.53;72.65;;
74260;Laerm;62630;55.874;37.516;2023-02-28T11:34:46;61.85;54.06;72.85;;
74260;Laerm;62630;55.874;37.516;2023-02-28T11:37:18;69.82;56.33;85.04;;
74260;Laerm;62630;55.874;37.516;2023-02-28T11:39:48;69.39;55.61;87.45;;
74260;Laerm;62630;55.874;37.516;2023-02-28T11:48:20;65.29;57.05;83.41;;
74260;Laerm;62630;55.874;37.516;2023-02-28T11:57:00;64.41;56.11;78.30;;
74260;Laerm;62630;55.874;37.516;2023-02-28T11:59:51;67.39;56.94;81.36;;
74260;Laerm;62630;55.874;37.516;2023-02-28T12:10:39;63.78;55.41;72.26;;
74260;Laerm;62630;55.874;37.516;2023-02-28T12:28:03;63.68;54.97;78.21;;
74260;Laerm;62630;55.874;37.516;2023-02-28T12:30:35;64.27;55.64;75.96;;
74260;Laerm;62630;55.874;37.516;2023-02-28T12:33:27;62.94;56.12;72.81;;
74260;Laerm;62630;55.874;37.516;2023-02-28T12:35:56;64.26;55.55;73.54;;
74260;Laerm;62630;55.874;37.516;2023-02-28T12:38:26;63.02;54.09;72.91;;
74260;Laerm;62630;55.874;37.516;2023-02-28T12:40:56;63.70;54.74;75.27;;
74260;Laerm;62630;55.874;37.516;2023-02-28T12:43:28;63.76;55.82;75.14;;
74260;Laerm;62630;55.874;37.516;2023-02-28T12:46:02;62.98;53.84;74.82;;
74260;Laerm;62630;55.874;37.516;2023-02-28T12:48:38;67.84;55.84;88.27;;
74260;Laerm;62630;55.874;37.516;2023-02-28T12:51:07;62.11;55.64;70.44;;
74260;Laerm;62630;55.874;37.516;2023-02-28T12:56:18;65.01;55.69;72.80;;
74260;Laerm;62630;55.874;37.516;2023-02-28T12:58:48;63.82;54.94;71.16;;
74260;Laerm;62630;55.874;37.516;2023-02-28T13:34:42;64.27;54.91;72.26;;
74260;Laerm;62630;55.874;37.516;2023-02-28T13:39:52;65.44;56.62;81.71;;
74260;Laerm;62630;55.874;37.516;2023-02-28T13:47:42;64.40;58.85;72.07;;
74260;Laerm;62630;55.874;37.516;2023-02-28T13:50:30;63.85;55.70;69.93;;
74260;Laerm;62630;55.874;37.516;2023-02-28T14:01:29;66.90;55.25;81.43;;
74260;Laerm;62630;55.874;37.516;2023-02-28T14:07:03;62.83;54.55;69.35;;
74260;Laerm;62630;55.874;37.516;2023-02-28T14:09:41;68.50;59.96;86.78;;
74260;Laerm;62630;55.874;37.516;2023-02-28T14:19:00;64.55;58.20;75.51;;
74260;Laerm;62630;55.874;37.516;2023-02-28T14:21:34;69.05;59.62;84.37;;
74260;Laerm;62630;55.874;37.516;2023-02-28T14:24:39;66.54;56.90;76.25;;
74260;Laerm;62630;55.874;37.516;2023-02-28T14:41:50;64.30;56.53;72.59;;
74260;Laerm;62630;55.874;37.516;2023-02-28T14:44:23;64.94;56.40;77.15;;
74260;Laerm;62630;55.874;37.516;2023-02-28T14:47:01;64.29;56.22;72.93;;
74260;Laerm;62630;55.874;37.516;2023-02-28T14:49:35;65.66;56.36;80.45;;
74260;Laerm;62630;55.874;37.516;2023-02-28T14:52:20;66.16;55.95;77.53;;
74260;Laerm;62630;55.874;37.516;2023-02-28T14:54:55;64.54;55.46;78.55;;
74260;Laerm;62630;55.874;37.516;2023-02-28T14:57:30;63.03;54.37;70.27;;
74260;Laerm;62630;55.874;37.516;2023-02-28T15:00:03;65.23;56.69;81.14;;
74260;Laerm;62630;55.874;37.516;2023-02-28T15:02:33;64.25;56.60;79.16;;
74260;Laerm;62630;55.874;37.516;2023-02-28T15:05:10;62.92;56.31;71.73;;
74260;Laerm;62630;55.874;37.516;2023-02-28T15:07:42;68.29;57.19;84.12;;
74260;Laerm;62630;55.874;37.516;2023-02-28T15:10:26;65.35;57.06;85.32;;
74260;Laerm;62630;55.874;37.516;2023-02-28T15:12:58;65.29;57.22;79.31;;
74260;Laerm;62630;55.874;37.516;2023-02-28T15:16:13;65.05;57.15;78.01;;
74260;Laerm;62630;55.874;37.516;2023-02-28T15:18:40;63.70;55.06;79.81;;
74260;Laerm;62630;55.874;37.516;2023-02-28T15:21:22;63.16;55.27;71.56;;
74260;Laerm;62630;55.874;37.516;2023-02-28T15:23:56;63.96;56.68;76.16;;
74260;Laerm;62630;55.874;37.516;2023-02-28T15:26:27;64.99;56.37;80.75;;
74260;Laerm;62630;55.874;37.516;2023-02-28T15:29:00;63.57;55.30;74.03;;
74260;Laerm;62630;55.874;37.516;2023-02-28T15:31:29;64.16;56.85;73.11;;
74260;Laerm;62630;55.874;37.516;2023-02-28T15:34:04;64.29;57.81;83.43;;
74260;Laerm;62630;55.874;37.516;2023-02-28T15:36:31;64.44;56.75;78.49;;
74260;Laerm;62630;55.874;37.516;2023-02-28T15:38:59;65.73;56.83;77.28;;
74260;Laerm;62630;55.874;37.516;2023-02-28T15:41:28;62.63;55.00;72.93;;
74260;Laerm;62630;55.874;37.516;2023-02-28T15:44:13;64.33;55.63;73.86;;
74260;Laerm;62630;55.874;37.516;2023-02-28T15:46:43;63.19;57.12;73.90;;
74260;Laerm;62630;55.874;37.516;2023-02-28T15:49:18;61.60;55.10;71.35;;
74260;Laerm;62630;55.874;37.516;2023-02-28T15:51:44;63.34;56.11;70.46;;
74260;Laerm;62630;55.874;37.516;2023-02-28T15:54:23;71.14;55.14;92.63;;
74260;Laerm;62630;55.874;37.516;2023-02-28T15:56:53;67.72;55.86;91.07;;
74260;Laerm;62630;55.874;37.516;2023-02-28T15:59:27;65.56;56.44;79.20;;
74260;Laerm;62630;55.874;37.516;2023-02-28T16:04:36;62.17;54.24;68.25;;
74260;Laerm;62630;55.874;37.516;2023-02-28T16:07:17;62.56;54.41;69.93;;
74260;Laerm;62630;55.874;37.516;2023-02-28T16:09:49;64.99;56.03;79.29;;
74260;Laerm;62630;55.874;37.516;2023-02-28T16:12:14;66.57;56.54;82.64;;
74260;Laerm;62630;55.874;37.516;2023-02-28T16:14:40;61.70;54.87;70.56;;
74260;Laerm;62630;55.874;37.516;2023-02-28T16:17:16;64.73;55.25;71.64;;
74260;Laerm;62630;55.874;37.516;2023-02-28T16:19:48;65.25;57.04;78.22;;
74260;Laerm;62630;55.874;37.516;2023-02-28T16:22:16;67.92;57.82;80.72;;
74260;Laerm;62630;55.874;37.516;2023-02-28T16:24:45;61.37;54.38;70.14;;
74260;Laerm;62630;55.874;37.516;2023-02-28T16:27:30;65.79;55.73;87.17;;
74260;Laerm;62630;55.874;37.516;2023-02-28T16:29:58;65.51;56.11;88.71;;
74260;Laerm;62630;55.874;37.516;2023-02-28T16:32:30;64.94;55.56;77.14;;